Time,TemperatureF,DewpointF,PressureIn,WindDirection,WindDirectionDegrees,WindSpeedMPH,WindSpeedGustMPH,Humidity,HourlyPrecipIn,Conditions,Clouds,dailyrainin,SoftwareType,DateUTC
2013-02-07 00:02:00,53.0,-99.9,-100.00,ENE,70,6.0,9.0,-999,-99.99,,,-99.99,,2013-02-07 05:02:00,
2013-02-07 00:12:00,53.0,-99.9,-100.00,ENE,70,6.0,9.0,-999,-99.99,,,-99.99,,2013-02-07 05:12:00,
2013-02-07 00:22:00,53.0,-99.9,-100.00,ENE,70,6.0,9.0,-999,-99.99,,,-99.99,,2013-02-07 05:22:00,
2013-02-07 00:32:00,53.0,-99.9,-100.00,ENE,70,6.0,9.0,-999,-99.99,,,-99.99,,2013-02-07 05:32:00,
2013-02-07 00:40:00,52.0,-99.9,-100.00,East,80,6.0,11.0,-999,-99.99,,,-99.99,,2013-02-07 05:40:00,
2013-02-07 01:02:00,52.0,-99.9,-100.00,East,80,6.0,11.0,-999,-99.99,,,-99.99,,2013-02-07 06:02:00,
2013-02-07 01:11:00,52.0,-99.9,-100.00,East,80,6.0,11.0,-999,-99.99,,,-99.99,,2013-02-07 06:11:00,
2013-02-07 01:22:00,52.0,-99.9,-100.00,East,80,6.0,11.0,-999,-99.99,,,-99.99,,2013-02-07 06:22:00,
2013-02-07 01:32:00,52.0,-99.9,-100.00,East,80,6.0,11.0,-999,-99.99,,,-99.99,,2013-02-07 06:32:00,
2013-02-07 01:40:00,49.0,-99.9,-100.00,South,190,2.0,3.0,-999,-99.99,,,-99.99,,2013-02-07 06:40:00,
2013-02-07 02:02:00,49.0,-99.9,-100.00,South,190,2.0,3.0,-999,-99.99,,,-99.99,,2013-02-07 07:02:00,
2013-02-07 02:12:00,49.0,-99.9,-100.00,South,190,2.0,3.0,-999,-99.99,,,-99.99,,2013-02-07 07:12:00,
2013-02-07 02:22:00,49.0,-99.9,-100.00,South,190,2.0,3.0,-999,-99.99,,,-99.99,,2013-02-07 07:22:00,
2013-02-07 02:32:00,49.0,-99.9,-100.00,South,190,2.0,3.0,-999,-99.99,,,-99.99,,2013-02-07 07:32:00,
2013-02-07 02:40:00,51.0,-99.9,-100.00,NNE,30,1.0,6.0,-999,-99.99,,,-99.99,,2013-02-07 07:40:00,
2013-02-07 03:02:00,51.0,-99.9,-100.00,NNE,30,1.0,6.0,-999,-99.99,,,-99.99,,2013-02-07 08:02:00,
2013-02-07 03:11:00,51.0,-99.9,-100.00,NNE,30,1.0,6.0,-999,-99.99,,,-99.99,,2013-02-07 08:11:00,
2013-02-07 03:22:00,51.0,-99.9,-100.00,NNE,30,1.0,6.0,-999,-99.99,,,-99.99,,2013-02-07 08:22:00,
2013-02-07 03:32:00,51.0,-99.9,-100.00,NNE,30,1.0,6.0,-999,-99.99,,,-99.99,,2013-02-07 08:32:00,
2013-02-07 03:40:00,50.0,-99.9,-100.00,ENE,60,1.0,3.0,-999,-99.99,,,-99.99,,2013-02-07 08:40:00,
2013-02-07 04:02:00,50.0,-99.9,-100.00,ENE,60,1.0,3.0,-999,-99.99,,,-99.99,,2013-02-07 09:02:00,
2013-02-07 04:11:00,50.0,-99.9,-100.00,ENE,60,1.0,3.0,-999,-99.99,,,-99.99,,2013-02-07 09:11:00,
2013-02-07 04:22:00,50.0,-99.9,-100.00,ENE,60,1.0,3.0,-999,-99.99,,,-99.99,,2013-02-07 09:22:00,
2013-02-07 04:32:00,50.0,-99.9,-100.00,ENE,60,1.0,3.0,-999,-99.99,,,-99.99,,2013-02-07 09:32:00,
2013-02-07 04:40:00,48.0,-99.9,-100.00,North,350,5.0,5.0,-999,-99.99,,,-99.99,,2013-02-07 09:40:00,
2013-02-07 05:02:00,48.0,-99.9,-100.00,North,350,5.0,5.0,-999,-99.99,,,-99.99,,2013-02-07 10:02:00,
2013-02-07 05:11:00,48.0,-99.9,-100.00,North,350,5.0,5.0,-999,-99.99,,,-99.99,,2013-02-07 10:11:00,
2013-02-07 05:22:00,48.0,-99.9,-100.00,North,350,5.0,5.0,-999,-99.99,,,-99.99,,2013-02-07 10:22:00,
2013-02-07 05:32:00,48.0,-99.9,-100.00,North,350,5.0,5.0,-999,-99.99,,,-99.99,,2013-02-07 10:32:00,
2013-02-07 05:40:00,48.0,-99.9,-100.00,North,10,2.0,5.0,-999,-99.99,,,-99.99,,2013-02-07 10:40:00,
2013-02-07 06:02:00,48.0,-99.9,-100.00,North,10,2.0,5.0,-999,-99.99,,,-99.99,,2013-02-07 11:02:00,
2013-02-07 06:12:00,48.0,-99.9,-100.00,North,10,2.0,5.0,-999,-99.99,,,-99.99,,2013-02-07 11:12:00,
2013-02-07 06:23:00,48.0,-99.9,-100.00,North,10,2.0,5.0,-999,-99.99,,,-99.99,,2013-02-07 11:23:00,
2013-02-07 06:32:00,48.0,-99.9,-100.00,North,10,2.0,5.0,-999,-99.99,,,-99.99,,2013-02-07 11:32:00,
2013-02-07 06:40:00,45.0,-99.9,-100.00,North,350,7.0,8.0,-999,-99.99,,,-99.99,,2013-02-07 11:40:00,
2013-02-07 07:02:00,45.0,-99.9,-100.00,North,350,7.0,8.0,-999,-99.99,,,-99.99,,2013-02-07 12:02:00,
2013-02-07 07:12:00,45.0,-99.9,-100.00,North,350,7.0,8.0,-999,-99.99,,,-99.99,,2013-02-07 12:12:00,
2013-02-07 07:22:00,45.0,-99.9,-100.00,North,350,7.0,8.0,-999,-99.99,,,-99.99,,2013-02-07 12:22:00,
2013-02-07 07:33:00,45.0,-99.9,-100.00,North,350,7.0,8.0,-999,-99.99,,,-99.99,,2013-02-07 12:33:00,
2013-02-07 07:40:00,46.0,-99.9,-100.00,North,360,7.0,9.0,-999,-99.99,,,-99.99,,2013-02-07 12:40:00,
2013-02-07 08:03:00,46.0,-99.9,-100.00,North,360,7.0,9.0,-999,-99.99,,,-99.99,,2013-02-07 13:03:00,
2013-02-07 08:12:00,46.0,-99.9,-100.00,North,360,7.0,9.0,-999,-99.99,,,-99.99,,2013-02-07 13:12:00,
2013-02-07 08:22:00,46.0,-99.9,-100.00,North,360,7.0,9.0,-999,-99.99,,,-99.99,,2013-02-07 13:22:00,
2013-02-07 08:33:00,46.0,-99.9,-100.00,North,360,7.0,9.0,-999,-99.99,,,-99.99,,2013-02-07 13:33:00,
2013-02-07 08:40:00,47.0,-99.9,-100.00,North,350,9.0,11.0,-999,-99.99,,,-99.99,,2013-02-07 13:40:00,
2013-02-07 09:02:00,47.0,-99.9,-100.00,North,350,9.0,11.0,-999,-99.99,,,-99.99,,2013-02-07 14:02:00,
2013-02-07 09:12:00,47.0,-99.9,-100.00,North,350,9.0,11.0,-999,-99.99,,,-99.99,,2013-02-07 14:12:00,
2013-02-07 09:22:00,47.0,-99.9,-100.00,North,350,9.0,11.0,-999,-99.99,,,-99.99,,2013-02-07 14:22:00,
2013-02-07 09:32:00,47.0,-99.9,-100.00,North,350,9.0,11.0,-999,-99.99,,,-99.99,,2013-02-07 14:32:00,
2013-02-07 09:40:00,47.0,-99.9,-100.00,North,350,11.0,13.0,-999,-99.99,,,-99.99,,2013-02-07 14:40:00,
2013-02-07 10:02:00,47.0,-99.9,-100.00,North,350,11.0,13.0,-999,-99.99,,,-99.99,,2013-02-07 15:02:00,
2013-02-07 10:11:00,47.0,-99.9,-100.00,North,350,11.0,13.0,-999,-99.99,,,-99.99,,2013-02-07 15:11:00,
2013-02-07 10:22:00,47.0,-99.9,-100.00,North,350,11.0,13.0,-999,-99.99,,,-99.99,,2013-02-07 15:22:00,
2013-02-07 10:32:00,47.0,-99.9,-100.00,North,350,11.0,13.0,-999,-99.99,,,-99.99,,2013-02-07 15:32:00,
2013-02-07 10:40:00,47.0,-99.9,-100.00,North,10,6.0,10.0,-999,-99.99,,,-99.99,,2013-02-07 15:40:00,
2013-02-07 11:02:00,47.0,-99.9,-100.00,North,10,6.0,10.0,-999,-99.99,,,-99.99,,2013-02-07 16:02:00,
2013-02-07 11:11:00,47.0,-99.9,-100.00,North,10,6.0,10.0,-999,-99.99,,,-99.99,,2013-02-07 16:11:00,
2013-02-07 11:22:00,47.0,-99.9,-100.00,North,10,6.0,10.0,-999,-99.99,,,-99.99,,2013-02-07 16:22:00,
2013-02-07 11:32:00,47.0,-99.9,-100.00,North,10,6.0,10.0,-999,-99.99,,,-99.99,,2013-02-07 16:32:00,
2013-02-07 11:40:00,46.0,-99.9,-100.00,North,10,11.0,14.0,-999,-99.99,,,-99.99,,2013-02-07 16:40:00,
2013-02-07 12:01:00,46.0,-99.9,-100.00,North,10,11.0,14.0,-999,-99.99,,,-99.99,,2013-02-07 17:01:00,
2013-02-07 12:11:00,46.0,-99.9,-100.00,North,10,11.0,14.0,-999,-99.99,,,-99.99,,2013-02-07 17:11:00,
2013-02-07 12:22:00,46.0,-99.9,-100.00,North,10,11.0,14.0,-999,-99.99,,,-99.99,,2013-02-07 17:22:00,
2013-02-07 12:32:00,46.0,-99.9,-100.00,North,10,11.0,14.0,-999,-99.99,,,-99.99,,2013-02-07 17:32:00,
2013-02-07 12:40:00,46.0,-99.9,-100.00,North,10,7.0,9.0,-999,-99.99,,,-99.99,,2013-02-07 17:40:00,
2013-02-07 13:02:00,46.0,-99.9,-100.00,North,10,7.0,9.0,-999,-99.99,,,-99.99,,2013-02-07 18:02:00,
2013-02-07 13:12:00,46.0,-99.9,-100.00,North,10,7.0,9.0,-999,-99.99,,,-99.99,,2013-02-07 18:12:00,
2013-02-07 13:23:00,46.0,-99.9,-100.00,North,10,7.0,9.0,-999,-99.99,,,-99.99,,2013-02-07 18:23:00,
2013-02-07 13:32:00,46.0,-99.9,-100.00,North,10,7.0,9.0,-999,-99.99,,,-99.99,,2013-02-07 18:32:00,
2013-02-07 13:40:00,46.0,-99.9,-100.00,NNE,20,14.0,18.0,-999,-99.99,,,-99.99,,2013-02-07 18:40:00,
2013-02-07 14:02:00,46.0,-99.9,-100.00,NNE,20,14.0,18.0,-999,-99.99,,,-99.99,,2013-02-07 19:02:00,
2013-02-07 14:11:00,46.0,-99.9,-100.00,NNE,20,14.0,18.0,-999,-99.99,,,-99.99,,2013-02-07 19:11:00,
2013-02-07 14:22:00,46.0,-99.9,-100.00,NNE,20,14.0,18.0,-999,-99.99,,,-99.99,,2013-02-07 19:22:00,
2013-02-07 14:32:00,46.0,-99.9,-100.00,NNE,20,14.0,18.0,-999,-99.99,,,-99.99,,2013-02-07 19:32:00,
2013-02-07 14:40:00,47.0,-99.9,-100.00,NNE,20,14.0,17.0,-999,-99.99,,,-99.99,,2013-02-07 19:40:00,
2013-02-07 15:01:00,47.0,-99.9,-100.00,NNE,20,14.0,17.0,-999,-99.99,,,-99.99,,2013-02-07 20:01:00,
2013-02-07 15:11:00,47.0,-99.9,-100.00,NNE,20,14.0,17.0,-999,-99.99,,,-99.99,,2013-02-07 20:11:00,
2013-02-07 15:22:00,47.0,-99.9,-100.00,NNE,20,14.0,17.0,-999,-99.99,,,-99.99,,2013-02-07 20:22:00,
2013-02-07 15:32:00,47.0,-99.9,-100.00,NNE,20,14.0,17.0,-999,-99.99,,,-99.99,,2013-02-07 20:32:00,
2013-02-07 15:40:00,47.0,-99.9,-100.00,North,10,14.0,20.0,-999,-99.99,,,-99.99,,2013-02-07 20:40:00,
2013-02-07 16:02:00,47.0,-99.9,-100.00,North,10,14.0,20.0,-999,-99.99,,,-99.99,,2013-02-07 21:02:00,
2013-02-07 16:11:00,47.0,-99.9,-100.00,North,10,14.0,20.0,-999,-99.99,,,-99.99,,2013-02-07 21:11:00,
2013-02-07 16:22:00,47.0,-99.9,-100.00,North,10,14.0,20.0,-999,-99.99,,,-99.99,,2013-02-07 21:22:00,
2013-02-07 16:32:00,47.0,-99.9,-100.00,North,10,14.0,20.0,-999,-99.99,,,-99.99,,2013-02-07 21:32:00,
2013-02-07 16:40:00,47.0,-99.9,-100.00,NNE,20,14.0,20.0,-999,-99.99,,,-99.99,,2013-02-07 21:40:00,
2013-02-07 17:02:00,47.0,-99.9,-100.00,NNE,20,14.0,20.0,-999,-99.99,,,-99.99,,2013-02-07 22:02:00,
2013-02-07 17:11:00,47.0,-99.9,-100.00,NNE,20,14.0,20.0,-999,-99.99,,,-99.99,,2013-02-07 22:11:00,
2013-02-07 17:22:00,47.0,-99.9,-100.00,NNE,20,14.0,20.0,-999,-99.99,,,-99.99,,2013-02-07 22:22:00,
2013-02-07 17:32:00,47.0,-99.9,-100.00,NNE,20,14.0,20.0,-999,-99.99,,,-99.99,,2013-02-07 22:32:00,
2013-02-07 17:40:00,46.0,-99.9,-100.00,NNE,30,16.0,24.0,-999,-99.99,,,-99.99,,2013-02-07 22:40:00,
2013-02-07 18:02:00,46.0,-99.9,-100.00,NNE,30,16.0,24.0,-999,-99.99,,,-99.99,,2013-02-07 23:02:00,
2013-02-07 18:11:00,46.0,-99.9,-100.00,NNE,30,16.0,24.0,-999,-99.99,,,-99.99,,2013-02-07 23:11:00,
2013-02-07 18:22:00,46.0,-99.9,-100.00,NNE,30,16.0,24.0,-999,-99.99,,,-99.99,,2013-02-07 23:22:00,
2013-02-07 18:32:00,46.0,-99.9,-100.00,NNE,30,16.0,24.0,-999,-99.99,,,-99.99,,2013-02-07 23:32:00,
2013-02-07 18:40:00,47.0,-99.9,-100.00,North,10,16.0,22.0,-999,-99.99,,,-99.99,,2013-02-07 23:40:00,
2013-02-07 19:02:00,47.0,-99.9,-100.00,North,10,16.0,22.0,-999,-99.99,,,-99.99,,2013-02-08 00:02:00,
2013-02-07 19:11:00,47.0,-99.9,-100.00,North,10,16.0,22.0,-999,-99.99,,,-99.99,,2013-02-08 00:11:00,
2013-02-07 19:22:00,47.0,-99.9,-100.00,North,10,16.0,22.0,-999,-99.99,,,-99.99,,2013-02-08 00:22:00,
2013-02-07 19:32:00,47.0,-99.9,-100.00,North,10,16.0,22.0,-999,-99.99,,,-99.99,,2013-02-08 00:32:00,
2013-02-07 19:40:00,47.0,-99.9,-100.00,North,350,14.0,21.0,-999,-99.99,,,-99.99,,2013-02-08 00:40:00,
2013-02-07 20:02:00,47.0,-99.9,-100.00,North,350,14.0,21.0,-999,-99.99,,,-99.99,,2013-02-08 01:02:00,
2013-02-07 20:11:00,47.0,-99.9,-100.00,North,350,14.0,21.0,-999,-99.99,,,-99.99,,2013-02-08 01:11:00,
2013-02-07 20:22:00,47.0,-99.9,-100.00,North,350,14.0,21.0,-999,-99.99,,,-99.99,,2013-02-08 01:22:00,
2013-02-07 20:32:00,47.0,-99.9,-100.00,North,350,14.0,21.0,-999,-99.99,,,-99.99,,2013-02-08 01:32:00,
2013-02-07 20:40:00,45.0,-99.9,-100.00,NE,50,23.0,37.0,-999,-99.99,,,-99.99,,2013-02-08 01:40:00,
2013-02-07 21:01:00,45.0,-99.9,-100.00,NE,50,23.0,37.0,-999,-99.99,,,-99.99,,2013-02-08 02:01:00,
2013-02-07 21:11:00,45.0,-99.9,-100.00,NE,50,23.0,37.0,-999,-99.99,,,-99.99,,2013-02-08 02:11:00,
2013-02-07 21:22:00,45.0,-99.9,-100.00,NE,50,23.0,37.0,-999,-99.99,,,-99.99,,2013-02-08 02:22:00,
2013-02-07 21:32:00,45.0,-99.9,-100.00,NE,50,23.0,37.0,-999,-99.99,,,-99.99,,2013-02-08 02:32:00,
2013-02-07 21:40:00,45.0,-99.9,-100.00,North,10,10.0,17.0,-999,-99.99,,,-99.99,,2013-02-08 02:40:00,
2013-02-07 22:02:00,45.0,-99.9,-100.00,North,10,10.0,17.0,-999,-99.99,,,-99.99,,2013-02-08 03:02:00,
2013-02-07 22:12:00,45.0,-99.9,-100.00,North,10,10.0,17.0,-999,-99.99,,,-99.99,,2013-02-08 03:12:00,
2013-02-07 22:23:00,45.0,-99.9,-100.00,North,10,10.0,17.0,-999,-99.99,,,-99.99,,2013-02-08 03:23:00,
2013-02-07 22:32:00,45.0,-99.9,-100.00,North,10,10.0,17.0,-999,-99.99,,,-99.99,,2013-02-08 03:32:00,
2013-02-07 22:40:00,46.0,-99.9,-100.00,North,360,15.0,18.0,-999,-99.99,,,-99.99,,2013-02-08 03:40:00,
2013-02-07 23:02:00,46.0,-99.9,-100.00,North,360,15.0,18.0,-999,-99.99,,,-99.99,,2013-02-08 04:02:00,
2013-02-07 23:11:00,46.0,-99.9,-100.00,North,360,15.0,18.0,-999,-99.99,,,-99.99,,2013-02-08 04:11:00,
2013-02-07 23:22:00,46.0,-99.9,-100.00,North,360,15.0,18.0,-999,-99.99,,,-99.99,,2013-02-08 04:22:00,
2013-02-07 23:32:00,46.0,-99.9,-100.00,North,360,15.0,18.0,-999,-99.99,,,-99.99,,2013-02-08 04:32:00,
2013-02-07 23:40:00,45.0,-99.9,-100.00,NNW,340,14.0,17.0,-999,-99.99,,,-99.99,,2013-02-08 04:40:00,